Air Quality Table

TIMESTAMP NO2 SO2 PM10 PM2.5 CO TEMP HUM AIRPRES WS WD NO BENZENE
2021-06-18 13:00 28.81 ug/m3 0.09 ug/m3 18.63 ug/m3 8.14 ug/m3 0.26 mg/m3 26.12 C 53.99 % 1,018.44 mbar 2.22 m/s 156.9 Deg 16.66 ug/m3 0.52 ug/m3
2021-06-18 12:00 31.96 ug/m3 0.13 ug/m3 21.81 ug/m3 13.15 ug/m3 0.26 mg/m3 26.12 C 53.24 % 1,018.26 mbar 2.17 m/s 146.63 Deg 19.16 ug/m3 0.94 ug/m3
2021-06-18 11:00 33.14 ug/m3 0.16 ug/m3 25.54 ug/m3 17.83 ug/m3 0.33 mg/m3 26.01 C 54.28 % 1,018.39 mbar 1.99 m/s 131.08 Deg 21.98 ug/m3 1.1 ug/m3
2021-06-18 10:00 49.89 ug/m3 0.35 ug/m3 23.64 ug/m3 26.13 ug/m3 0.37 mg/m3 25.45 C 55 % 1,018.50 mbar 2.01 m/s 95.37 Deg 32.96 ug/m3 1.05 ug/m3
2021-06-18 09:00 42.24 ug/m3 0.34 ug/m3 23.98 ug/m3 14.94 ug/m3 0.39 mg/m3 24.44 C 61.11 % 1,018.51 mbar 1.94 m/s 49.76 Deg 31.43 ug/m3 0.98 ug/m3
2021-06-18 08:00 48.02 ug/m3 0.51 ug/m3 40.08 ug/m3 16.53 ug/m3 0.41 mg/m3 23.35 C 69.22 % N/A 1.65 m/s 49.03 Deg 37 ug/m3 2.86 ug/m3
2021-06-18 07:00 45.44 ug/m3 0.26 ug/m3 35.03 ug/m3 27.28 ug/m3 0.44 mg/m3 22.97 C 70.58 % N/A 1.05 m/s 143.95 Deg 28.26 ug/m3 0.98 ug/m3
2021-06-18 06:00 34.45 ug/m3 0.07 ug/m3 29.52 ug/m3 5.83 ug/m3 0.3 mg/m3 22.52 C 71.56 % N/A 0.73 m/s 153.73 Deg 14.15 ug/m3 0.94 ug/m3
2021-06-18 05:00 28.32 ug/m3 0.03 ug/m3 14.94 ug/m3 5.63 ug/m3 0.21 mg/m3 22.18 C 72.94 % N/A 0.62 m/s 143.84 Deg 8.07 ug/m3 1.34 ug/m3
2021-06-18 04:00 14.9 ug/m3 -0.01 ug/m3 14.04 ug/m3 4.72 ug/m3 0.17 mg/m3 22.33 C 72.43 % N/A 0.7 m/s 123.52 Deg 6.63 ug/m3 1.54 ug/m3
2021-06-18 03:00 6.87 ug/m3 -0.13 ug/m3 14.48 ug/m3 8.16 ug/m3 0.09 mg/m3 22.51 C 71.49 % N/A 1.04 m/s 192.7 Deg -0.43 ug/m3 0.26 ug/m3
2021-06-18 02:00 6.45 ug/m3 -0.13 ug/m3 21.94 ug/m3 9.35 ug/m3 0.12 mg/m3 22.62 C 70.63 % N/A 1.08 m/s 206.2 Deg 0.2 ug/m3 0.23 ug/m3
2021-06-18 01:00 14.15 ug/m3 -0.1 ug/m3 20.22 ug/m3 10.3 ug/m3 0.13 mg/m3 22.58 C 70.74 % N/A 0.98 m/s 200.9 Deg 1.39 ug/m3 0.34 ug/m3
2021-06-18 00:00 25.59 ug/m3 -0.04 ug/m3 26.09 ug/m3 10.47 ug/m3 0.18 mg/m3 22.64 C 70.18 % N/A 1.79 m/s 168.07 Deg 4.42 ug/m3 1.63 ug/m3
2021-06-17 23:00 35.04 ug/m3 0.11 ug/m3 31.9 ug/m3 18.16 ug/m3 0.26 mg/m3 22.93 C 66.75 % N/A 1.44 m/s 107.6 Deg 11.66 ug/m3 0.65 ug/m3
2021-06-17 22:00 18.71 ug/m3 0.03 ug/m3 32.93 ug/m3 8.97 ug/m3 0.24 mg/m3 22.82 C 67.59 % N/A 0.94 m/s 104.28 Deg 10.07 ug/m3 0.44 ug/m3
2021-06-17 21:00 12.13 ug/m3 -0.05 ug/m3 32.52 ug/m3 17.94 ug/m3 0.17 mg/m3 22.98 C 66.57 % N/A 1.03 m/s 201.83 Deg 2.21 ug/m3 0.47 ug/m3
2021-06-17 20:00 21.96 ug/m3 0.05 ug/m3 29.49 ug/m3 7.31 ug/m3 0.29 mg/m3 23.24 C 64.79 % N/A 1.3 m/s 148.65 Deg 10.82 ug/m3 0.42 ug/m3
2021-06-17 19:00 21.55 ug/m3 0.04 ug/m3 16.3 ug/m3 11.24 ug/m3 0.25 mg/m3 24 C 59.7 % N/A 1.59 m/s 154.38 Deg 10.27 ug/m3 0.47 ug/m3
2021-06-17 18:00 22.84 ug/m3 0.06 ug/m3 19 ug/m3 12.62 ug/m3 0.25 mg/m3 24.83 C 56.05 % N/A 1.87 m/s 168.05 Deg 12.19 ug/m3 0.66 ug/m3
2021-06-17 17:00 18.71 ug/m3 0.05 ug/m3 36.06 ug/m3 10.56 ug/m3 0.25 mg/m3 25.27 C 53.97 % N/A 2.11 m/s 175.68 Deg 8.78 ug/m3 1.03 ug/m3
2021-06-17 16:00 14.13 ug/m3 -0.03 ug/m3 30.59 ug/m3 6.12 ug/m3 0.18 mg/m3 25.27 C 52.67 % N/A 2.46 m/s 177.87 Deg 5.13 ug/m3 0.55 ug/m3
2021-06-17 15:00 18.81 ug/m3 0.02 ug/m3 18.71 ug/m3 10.79 ug/m3 0.25 mg/m3 25.45 C 52.23 % N/A 2.3 m/s 157.4 Deg 10.86 ug/m3 0.71 ug/m3
2021-06-17 14:00 22.52 ug/m3 0.08 ug/m3 14.09 ug/m3 3.55 ug/m3 0.23 mg/m3 25.33 C 53.11 % N/A 2.47 m/s 157.22 Deg 13.55 ug/m3 0.39 ug/m3
2021-06-17 13:00 26.86 ug/m3 0.08 ug/m3 16.98 ug/m3 4.91 ug/m3 0.23 mg/m3 25.43 C 51.77 % N/A 2.25 m/s 165.13 Deg 16.02 ug/m3 0.68 ug/m3
2021-06-17 12:00 27 ug/m3 0.1 ug/m3 16.37 ug/m3 7.74 ug/m3 0.26 mg/m3 25.34 C 51.78 % N/A 2.36 m/s 144.02 Deg 15.47 ug/m3 0.58 ug/m3
2021-06-17 11:00 23.01 ug/m3 0.07 ug/m3 23.23 ug/m3 13.28 ug/m3 0.23 mg/m3 25.17 C 51.95 % N/A 2.44 m/s 178.22 Deg 13.51 ug/m3 0.68 ug/m3
2021-06-17 10:00 29.34 ug/m3 0.13 ug/m3 34.22 ug/m3 17.65 ug/m3 0.28 mg/m3 24.71 C 53.79 % N/A 2.4 m/s 106.28 Deg 20.54 ug/m3 0.49 ug/m3
2021-06-17 09:00 43.55 ug/m3 0.33 ug/m3 42.41 ug/m3 21.39 ug/m3 0.36 mg/m3 24.22 C 58.9 % N/A 2.26 m/s 154.22 Deg 32.45 ug/m3 2.05 ug/m3
2021-06-17 08:00 50.71 ug/m3 0.35 ug/m3 34.89 ug/m3 36.72 ug/m3 0.42 mg/m3 23.85 C 62.75 % N/A 1.49 m/s 118.85 Deg 36 ug/m3 0.94 ug/m3
2021-06-17 07:00 54.43 ug/m3 0.27 ug/m3 40.74 ug/m3 25.12 ug/m3 0.45 mg/m3 22.9 C 69.98 % N/A 1.1 m/s 192.35 Deg 30.53 ug/m3 2.36 ug/m3
2021-06-17 06:00 51.34 ug/m3 0.06 ug/m3 24.99 ug/m3 4.9 ug/m3 0.38 mg/m3 22.25 C 73.41 % N/A 0.46 m/s 215.35 Deg 13.42 ug/m3 1.05 ug/m3
2021-06-17 05:00 31.3 ug/m3 -0.08 ug/m3 23.3 ug/m3 6.67 ug/m3 0.2 mg/m3 21.54 C 76.02 % N/A 0.52 m/s 221.91 Deg 1.62 ug/m3 0.55 ug/m3
2021-06-17 04:00 10.2 ug/m3 -0.15 ug/m3 18.7 ug/m3 10.52 ug/m3 0.15 mg/m3 21.73 C 75.74 % N/A 0.7 m/s 177.03 Deg 0.07 ug/m3 0.31 ug/m3
2021-06-17 03:00 8.88 ug/m3 -0.1 ug/m3 16.38 ug/m3 9.03 ug/m3 0.1 mg/m3 21.95 C 73.99 % N/A 0.53 m/s 222.23 Deg 0.21 ug/m3 0.18 ug/m3
2021-06-17 02:00 4.46 ug/m3 -0.14 ug/m3 14.88 ug/m3 7.83 ug/m3 0.12 mg/m3 22.16 C 72.15 % N/A 0.74 m/s 211.48 Deg -0.47 ug/m3 0.26 ug/m3
2021-06-17 01:00 6.25 ug/m3 -0.09 ug/m3 21.41 ug/m3 11.99 ug/m3 0.13 mg/m3 22.42 C 69.15 % N/A 0.96 m/s 198.28 Deg 1.01 ug/m3 0.23 ug/m3
2021-06-17 00:00 7.6 ug/m3 -0.15 ug/m3 36.04 ug/m3 18.51 ug/m3 0.15 mg/m3 22.57 C 67.8 % N/A 1.06 m/s 182.87 Deg -0.02 ug/m3 0.37 ug/m3
2021-06-16 23:00 12.14 ug/m3 -0.05 ug/m3 32.07 ug/m3 10.74 ug/m3 0.19 mg/m3 22.65 C 68.71 % N/A 1.31 m/s 157.7 Deg 1.84 ug/m3 0.28 ug/m3
2021-06-16 22:00 13.17 ug/m3 -0.07 ug/m3 33.78 ug/m3 18.88 ug/m3 0.17 mg/m3 22.85 C 66.76 % N/A 1.42 m/s 159.82 Deg 2.88 ug/m3 0.44 ug/m3
2021-06-16 21:00 18.27 ug/m3 -0.02 ug/m3 22.56 ug/m3 6.85 ug/m3 0.22 mg/m3 23.12 C 63.24 % N/A 1.46 m/s 154.58 Deg 6.13 ug/m3 0.44 ug/m3
2021-06-16 20:00 16.37 ug/m3 -0 ug/m3 25.54 ug/m3 6 ug/m3 0.21 mg/m3 23.52 C 58.42 % N/A 1.84 m/s 178.05 Deg 4.8 ug/m3 0.61 ug/m3
2021-06-16 19:00 14.9 ug/m3 -0.04 ug/m3 29.46 ug/m3 2.35 ug/m3 0.19 mg/m3 24.35 C 54.35 % N/A 2.24 m/s 182.05 Deg 2.8 ug/m3 0.34 ug/m3
2021-06-16 18:00 14.32 ug/m3 -0.03 ug/m3 28.79 ug/m3 4.71 ug/m3 0.2 mg/m3 24.93 C 51 % N/A 2.43 m/s 184.37 Deg 3.88 ug/m3 1.1 ug/m3
2021-06-16 17:00 18.1 ug/m3 0.05 ug/m3 25.74 ug/m3 3.66 ug/m3 0.19 mg/m3 25.61 C 46.81 % N/A 2.51 m/s 187.72 Deg 7.71 ug/m3 0.34 ug/m3
2021-06-16 16:00 19.26 ug/m3 0.03 ug/m3 25.26 ug/m3 5.7 ug/m3 0.18 mg/m3 26.02 C 41.76 % N/A 2.35 m/s 173.97 Deg 8.59 ug/m3 0.44 ug/m3
2021-06-16 15:00 28.03 ug/m3 0.09 ug/m3 17.54 ug/m3 5.18 ug/m3 0.21 mg/m3 26.45 C 38.08 % N/A 2.54 m/s 147.73 Deg 15.24 ug/m3 0.49 ug/m3
2021-06-16 14:00 27.83 ug/m3 0.11 ug/m3 14.02 ug/m3 6.29 ug/m3 0.22 mg/m3 26.3 C 37.14 % N/A 2.22 m/s 135.68 Deg 16.4 ug/m3 0.47 ug/m3
2021-06-16 13:00 22.03 ug/m3 0.19 ug/m3 22.62 ug/m3 7.92 ug/m3 0.3 mg/m3 23.99 C 56.81 % N/A 4.37 m/s 45.32 Deg 25.89 ug/m3 0.91 ug/m3
2021-06-16 12:00 22.93 ug/m3 0.15 ug/m3 14.56 ug/m3 8.41 ug/m3 0.28 mg/m3 23.41 C 59.66 % N/A 4.13 m/s 52.67 Deg 23.78 ug/m3 0.52 ug/m3
2021-06-16 11:00 24.46 ug/m3 0.21 ug/m3 19.06 ug/m3 15.64 ug/m3 0.29 mg/m3 23.46 C 61.47 % N/A 3.42 m/s 45.22 Deg 29.34 ug/m3 0.81 ug/m3
2021-06-16 10:00 31.21 ug/m3 0.21 ug/m3 33.31 ug/m3 23.81 ug/m3 0.31 mg/m3 23.12 C 64.97 % N/A 3.57 m/s 50.33 Deg 25.69 ug/m3 1.5 ug/m3
2021-06-16 09:00 32.72 ug/m3 0.3 ug/m3 34.64 ug/m3 20.63 ug/m3 0.36 mg/m3 23.05 C 65.43 % N/A 2.79 m/s 56.22 Deg 35.14 ug/m3 1.7 ug/m3
2021-06-16 08:00 59 ug/m3 0.59 ug/m3 34.46 ug/m3 18.44 ug/m3 0.47 mg/m3 23.41 C 60.58 % N/A 1.43 m/s 186.65 Deg 46.19 ug/m3 1.75 ug/m3
2021-06-16 07:00 64.72 ug/m3 0.39 ug/m3 38.78 ug/m3 28.4 ug/m3 0.42 mg/m3 22.87 C 65.32 % N/A 0.62 m/s 37.15 Deg 36.27 ug/m3 2.12 ug/m3
2021-06-16 06:00 64.32 ug/m3 0.36 ug/m3 35.73 ug/m3 16.35 ug/m3 0.43 mg/m3 21.89 C 69.66 % N/A 0.73 m/s 38.45 Deg 28.38 ug/m3 1.24 ug/m3
2021-06-16 05:00 45.84 ug/m3 0.07 ug/m3 31.15 ug/m3 5.5 ug/m3 0.24 mg/m3 21.53 C 69.56 % N/A 0.33 m/s 130.4 Deg 10.72 ug/m3 0.42 ug/m3
2021-06-16 04:00 36.86 ug/m3 -0.03 ug/m3 19.63 ug/m3 5.95 ug/m3 0.15 mg/m3 21.58 C 69.32 % N/A 0.64 m/s 66.63 Deg 5.15 ug/m3 0.68 ug/m3
2021-06-16 03:00 29.08 ug/m3 -0.08 ug/m3 9.19 ug/m3 7.92 ug/m3 0.08 mg/m3 21.69 C 69.26 % N/A 0.97 m/s 67.98 Deg 3.88 ug/m3 0.49 ug/m3
2021-06-16 02:00 32.09 ug/m3 -0.12 ug/m3 10.89 ug/m3 7.47 ug/m3 0.1 mg/m3 21.92 C 67.37 % N/A 1.19 m/s 73.77 Deg 1.21 ug/m3 0.28 ug/m3
2021-06-16 01:00 31.95 ug/m3 -0.07 ug/m3 17.29 ug/m3 10.99 ug/m3 0.12 mg/m3 22.14 C 65.58 % N/A 1.51 m/s 139.23 Deg 3.99 ug/m3 0.31 ug/m3
2021-06-16 00:00 38.09 ug/m3 -0.04 ug/m3 31.48 ug/m3 9.35 ug/m3 0.17 mg/m3 22.36 C 64.14 % N/A 1.7 m/s 77.87 Deg 6.11 ug/m3 0.26 ug/m3
2021-06-15 23:00 37.06 ug/m3 0.01 ug/m3 29.64 ug/m3 13.24 ug/m3 0.21 mg/m3 22.53 C 65.05 % N/A 1.87 m/s 124.55 Deg 10.52 ug/m3 0.44 ug/m3
2021-06-15 22:00 31.05 ug/m3 0.03 ug/m3 25.8 ug/m3 4.93 ug/m3 0.23 mg/m3 22.65 C 64.36 % N/A 2.53 m/s 75.98 Deg 12.2 ug/m3 0.47 ug/m3
2021-06-15 21:00 26.65 ug/m3 0.12 ug/m3 17.09 ug/m3 5.5 ug/m3 0.22 mg/m3 22.77 C 64.91 % N/A 2.8 m/s 74.73 Deg 13.54 ug/m3 0.66 ug/m3
2021-06-15 20:00 26.13 ug/m3 0.08 ug/m3 18.16 ug/m3 6.56 ug/m3 0.31 mg/m3 23 C 61.01 % N/A 3.59 m/s 64.22 Deg 15.14 ug/m3 0.79 ug/m3
2021-06-15 19:00 24.99 ug/m3 0.06 ug/m3 19.4 ug/m3 10.76 ug/m3 0.25 mg/m3 23.37 C 57.86 % N/A 4.29 m/s 62.6 Deg 17.01 ug/m3 0.44 ug/m3
2021-06-15 18:00 23.31 ug/m3 0.03 ug/m3 26.55 ug/m3 13.36 ug/m3 0.25 mg/m3 23.5 C 59.09 % N/A 4.69 m/s 63.35 Deg 17.47 ug/m3 1.05 ug/m3
2021-06-15 17:00 22.35 ug/m3 0.06 ug/m3 23.36 ug/m3 18.55 ug/m3 0.27 mg/m3 23.41 C 67.06 % N/A 5.13 m/s 59.22 Deg 16.71 ug/m3 0.63 ug/m3
2021-06-15 16:00 12.56 ug/m3 -0.01 ug/m3 15.64 ug/m3 8.81 ug/m3 0.29 mg/m3 23.44 C 69.57 % N/A 5.69 m/s 61.17 Deg 16.1 ug/m3 1.26 ug/m3
2021-06-15 15:00 21.23 ug/m3 0.03 ug/m3 22.8 ug/m3 15.35 ug/m3 0.29 mg/m3 23.58 C 72.47 % N/A 5.63 m/s 56.83 Deg 18.95 ug/m3 1.08 ug/m3
2021-06-15 14:00 24.47 ug/m3 0.02 ug/m3 34.01 ug/m3 6.26 ug/m3 0.27 mg/m3 23.58 C 74.77 % N/A 5.07 m/s 53.77 Deg 16.4 ug/m3 0.68 ug/m3
2021-06-15 13:00 19.84 ug/m3 -0.02 ug/m3 21.02 ug/m3 9.55 ug/m3 0.25 mg/m3 23.39 C 78.31 % N/A 5.99 m/s 49.78 Deg 15.01 ug/m3 1.47 ug/m3
2021-06-15 12:00 26.84 ug/m3 0.03 ug/m3 24.56 ug/m3 15.45 ug/m3 0.3 mg/m3 23.99 C 72.44 % N/A 4.2 m/s 44.93 Deg 20.71 ug/m3 0.52 ug/m3
2021-06-15 11:00 29.27 ug/m3 0.06 ug/m3 21.47 ug/m3 21.17 ug/m3 0.3 mg/m3 24.35 C 68.16 % N/A 2.81 m/s 31.93 Deg 16.88 ug/m3 0.55 ug/m3
2021-06-15 10:00 24.73 ug/m3 0.05 ug/m3 22.18 ug/m3 11.06 ug/m3 0.35 mg/m3 24.51 C 68.75 % N/A 2.44 m/s 25.77 Deg 19.7 ug/m3 0.58 ug/m3
2021-06-15 09:00 29 ug/m3 -0.06 ug/m3 36.02 ug/m3 17.56 ug/m3 0.28 mg/m3 24.35 C 71.32 % N/A 1.91 m/s 249.2 Deg 12.67 ug/m3 0.44 ug/m3
2021-06-15 08:00 33.05 ug/m3 -0.05 ug/m3 39.9 ug/m3 31.45 ug/m3 0.27 mg/m3 23.9 C 75.79 % N/A 2.25 m/s 298.72 Deg 8.75 ug/m3 0.68 ug/m3
2021-06-15 07:00 40.9 ug/m3 -0.04 ug/m3 35.22 ug/m3 17.66 ug/m3 0.32 mg/m3 23.55 C 75.4 % N/A 1.91 m/s 260.45 Deg 8.26 ug/m3 1.03 ug/m3
2021-06-15 06:00 36.97 ug/m3 -0.09 ug/m3 27.16 ug/m3 11.05 ug/m3 0.3 mg/m3 22.68 C 76.5 % N/A 2 m/s 246.67 Deg 6.88 ug/m3 0.81 ug/m3
2021-06-15 05:00 16.54 ug/m3 -0.19 ug/m3 24.81 ug/m3 6.29 ug/m3 0.18 mg/m3 22.15 C 79.33 % N/A 1.03 m/s 237.42 Deg 0.58 ug/m3 0.26 ug/m3
2021-06-15 04:00 6.76 ug/m3 -0.18 ug/m3 19.15 ug/m3 10.59 ug/m3 0.13 mg/m3 22.48 C 75.2 % N/A 1.36 m/s 228.8 Deg -0.36 ug/m3 0.42 ug/m3
2021-06-15 03:00 5.47 ug/m3 -0.2 ug/m3 14.35 ug/m3 11.84 ug/m3 0.1 mg/m3 22.66 C 72.58 % N/A 1.66 m/s 241.57 Deg -0.44 ug/m3 0.7 ug/m3
2021-06-15 02:00 3.09 ug/m3 -0.22 ug/m3 20.22 ug/m3 19.08 ug/m3 0.13 mg/m3 22.73 C 75.59 % N/A 1.29 m/s 236.32 Deg -0.53 ug/m3 0.21 ug/m3
2021-06-15 01:00 4.61 ug/m3 -0.17 ug/m3 31.88 ug/m3 18.41 ug/m3 0.14 mg/m3 22.81 C 72.88 % N/A 1.58 m/s 220.27 Deg -0.48 ug/m3 0.31 ug/m3
2021-06-15 00:00 8.17 ug/m3 -0.19 ug/m3 32.22 ug/m3 11.55 ug/m3 0.16 mg/m3 23.06 C 76.1 % N/A 1.15 m/s 226.78 Deg -0.4 ug/m3 0.37 ug/m3
2021-06-14 23:00 10.54 ug/m3 -0.12 ug/m3 33.1 ug/m3 10.98 ug/m3 0.19 mg/m3 23.58 C 70.22 % N/A 1.11 m/s 234.33 Deg -0.33 ug/m3 0.44 ug/m3
2021-06-14 22:00 14.39 ug/m3 -0.12 ug/m3 24.99 ug/m3 13.9 ug/m3 0.19 mg/m3 23.78 C 69.74 % N/A 1.11 m/s 225.55 Deg -0.19 ug/m3 0.68 ug/m3
2021-06-14 21:00 17.38 ug/m3 -0.14 ug/m3 24.09 ug/m3 8.05 ug/m3 0.22 mg/m3 24.47 C 58.13 % N/A 1.27 m/s 237.25 Deg -0.01 ug/m3 0.71 ug/m3
2021-06-14 20:00 23.1 ug/m3 -0.06 ug/m3 35.47 ug/m3 13.16 ug/m3 0.27 mg/m3 24.78 C 61.7 % N/A 1.52 m/s 195.63 Deg 4.24 ug/m3 1.36 ug/m3
2021-06-14 19:00 23.62 ug/m3 -0.09 ug/m3 33.87 ug/m3 9.05 ug/m3 0.27 mg/m3 25.52 C 61.47 % N/A 1.37 m/s 185.75 Deg 5.53 ug/m3 0.92 ug/m3
2021-06-14 18:00 14.52 ug/m3 -0.03 ug/m3 22.66 ug/m3 12.94 ug/m3 0.21 mg/m3 25.76 C 57.69 % N/A 2.12 m/s 189.52 Deg 1.83 ug/m3 0.91 ug/m3
2021-06-14 17:00 40.63 ug/m3 0.08 ug/m3 15.8 ug/m3 9.17 ug/m3 0.41 mg/m3 26.53 C 47.86 % N/A 2.39 m/s 151.43 Deg 19.28 ug/m3 1.23 ug/m3
2021-06-14 16:00 32.79 ug/m3 0.08 ug/m3 20.02 ug/m3 3.48 ug/m3 0.34 mg/m3 24.93 C 60.76 % N/A 3.38 m/s 51.28 Deg 20.32 ug/m3 1.5 ug/m3
2021-06-14 15:00 32.45 ug/m3 0.14 ug/m3 22.98 ug/m3 4.87 ug/m3 0.32 mg/m3 24.48 C 60.91 % N/A 3.57 m/s 53.15 Deg 23.58 ug/m3 1.07 ug/m3
2021-06-14 14:00 28.76 ug/m3 0.1 ug/m3 37.1 ug/m3 9.74 ug/m3 0.34 mg/m3 24.35 C 65.25 % N/A 2.79 m/s 52.43 Deg 22.36 ug/m3 0.58 ug/m3
2021-06-14 13:00 32.37 ug/m3 0.2 ug/m3 31.63 ug/m3 16.13 ug/m3 0.42 mg/m3 23.57 C 75.64 % N/A 3.17 m/s 52.4 Deg 24.06 ug/m3 1.89 ug/m3
2021-06-14 12:00 20.38 ug/m3 0.03 ug/m3 38.47 ug/m3 29.66 ug/m3 0.3 mg/m3 24.01 C 74.25 % N/A 2.74 m/s 30.12 Deg 17.18 ug/m3 0.7 ug/m3
2021-06-14 11:00 35.75 ug/m3 0.18 ug/m3 44.66 ug/m3 20.09 ug/m3 0.34 mg/m3 25.09 C 65.08 % N/A 2.47 m/s 22 Deg 21.98 ug/m3 0.89 ug/m3
2021-06-14 10:00 32.69 ug/m3 0.07 ug/m3 57.49 ug/m3 34.7 ug/m3 0.31 mg/m3 26.6 C 60.18 % N/A 1.7 m/s 217.88 Deg 15.33 ug/m3 0.87 ug/m3
2021-06-14 09:00 39.61 ug/m3 0.08 ug/m3 54.09 ug/m3 37.95 ug/m3 0.34 mg/m3 25.45 C 66.83 % N/A 1.67 m/s 244.15 Deg 10.93 ug/m3 1.96 ug/m3
2021-06-14 08:00 35.68 ug/m3 0.04 ug/m3 44.74 ug/m3 42.57 ug/m3 0.29 mg/m3 24.19 C 71.53 % N/A 2.22 m/s 241.2 Deg 9.03 ug/m3 1.05 ug/m3
2021-06-14 07:00 44.45 ug/m3 0.05 ug/m3 34.18 ug/m3 30.08 ug/m3 0.34 mg/m3 22.99 C 76.04 % N/A 2.12 m/s 251.37 Deg 9.92 ug/m3 1.1 ug/m3
2021-06-14 06:00 42.58 ug/m3 0.01 ug/m3 21.38 ug/m3 8.3 ug/m3 0.34 mg/m3 22.46 C 78.7 % N/A 1.21 m/s 233.87 Deg 4.9 ug/m3 1.19 ug/m3
2021-06-14 05:00 42.91 ug/m3 -0.01 ug/m3 30.09 ug/m3 2.98 ug/m3 0.25 mg/m3 22.2 C 57.05 % N/A 0.82 m/s 232.4 Deg 2.38 ug/m3 1.78 ug/m3
2021-06-14 04:00 36.01 ug/m3 0.12 ug/m3 13.97 ug/m3 5.97 ug/m3 0.23 mg/m3 22.56 C 52.24 % N/A 0.36 m/s 146.22 Deg 3.79 ug/m3 1.12 ug/m3
2021-06-14 03:00 14.1 ug/m3 -0.12 ug/m3 11.06 ug/m3 7.29 ug/m3 0.11 mg/m3 23.21 C 47.25 % N/A 0.52 m/s 224.17 Deg -0.51 ug/m3 1 ug/m3
2021-06-14 02:00 10.03 ug/m3 -0.13 ug/m3 13.69 ug/m3 8.36 ug/m3 0.15 mg/m3 23.35 C 48.6 % N/A 0.54 m/s 225.96 Deg -0.33 ug/m3 0.58 ug/m3
2021-06-14 01:00 9.05 ug/m3 -0.08 ug/m3 18.87 ug/m3 8.89 ug/m3 0.15 mg/m3 23.63 C 48.22 % N/A 0.56 m/s 173.28 Deg -0.51 ug/m3 0.44 ug/m3
2021-06-14 00:00 13.37 ug/m3 -0.13 ug/m3 31.15 ug/m3 16.23 ug/m3 0.18 mg/m3 23.43 C 54.06 % N/A 1.04 m/s 233.37 Deg 0.04 ug/m3 0.65 ug/m3
2021-06-13 23:00 18.84 ug/m3 -0.2 ug/m3 43.07 ug/m3 24.62 ug/m3 0.23 mg/m3 23.09 C 70.03 % N/A 0.99 m/s 241.28 Deg -0.14 ug/m3 0.61 ug/m3
2021-06-13 22:00 21.44 ug/m3 -0.14 ug/m3 30.58 ug/m3 30.26 ug/m3 0.3 mg/m3 23.08 C 75.5 % N/A 1.1 m/s 280.18 Deg 1.55 ug/m3 0.73 ug/m3
2021-06-13 21:00 23.48 ug/m3 -0.11 ug/m3 40.69 ug/m3 17.62 ug/m3 0.28 mg/m3 23.31 C 73.66 % N/A 1.44 m/s 269.15 Deg 0.56 ug/m3 1.15 ug/m3
2021-06-13 20:00 23.27 ug/m3 -0.08 ug/m3 35.76 ug/m3 19.01 ug/m3 0.27 mg/m3 23.96 C 72.18 % N/A 1.87 m/s 254.03 Deg 0.59 ug/m3 0.68 ug/m3
2021-06-13 19:00 31.89 ug/m3 -0.08 ug/m3 34.01 ug/m3 18.1 ug/m3 0.3 mg/m3 24.72 C 69.59 % N/A 2.19 m/s 205.1 Deg 4.66 ug/m3 0.92 ug/m3
2021-06-13 18:00 36.63 ug/m3 0.01 ug/m3 20.94 ug/m3 14.14 ug/m3 0.41 mg/m3 25.39 C 63.17 % N/A 2.1 m/s 108.23 Deg 11.79 ug/m3 0.81 ug/m3
2021-06-13 17:00 19.18 ug/m3 -0.04 ug/m3 12.82 ug/m3 11.06 ug/m3 0.22 mg/m3 26.52 C 51.13 % N/A 1.63 m/s 254.07 Deg 4.7 ug/m3 0.63 ug/m3
2021-06-13 16:00 20.34 ug/m3 -0.03 ug/m3 19.54 ug/m3 4.06 ug/m3 0.25 mg/m3 25.83 C 53.67 % N/A 2.67 m/s 93.9 Deg 6.58 ug/m3 0.84 ug/m3
2021-06-13 15:00 16.81 ug/m3 -0.05 ug/m3 16.78 ug/m3 3.56 ug/m3 0.28 mg/m3 24.28 C 63.28 % N/A 4.05 m/s 53.42 Deg 5.74 ug/m3 0.79 ug/m3
2021-06-13 14:00 15.56 ug/m3 -0.06 ug/m3 7 ug/m3 3.64 ug/m3 0.27 mg/m3 24.16 C 63.28 % N/A 3.49 m/s 56.62 Deg 8.43 ug/m3 0.68 ug/m3
2021-06-13 13:00 17.68 ug/m3 0.02 ug/m3 5.32 ug/m3 5.21 ug/m3 0.24 mg/m3 23.75 C 63.42 % N/A 3.65 m/s 58.5 Deg 11.58 ug/m3 1.15 ug/m3
2021-06-13 12:00 24.61 ug/m3 0.02 ug/m3 7.74 ug/m3 8.95 ug/m3 0.32 mg/m3 23.5 C 66.6 % N/A 3.31 m/s 61.77 Deg 11.59 ug/m3 1.18 ug/m3
2021-06-13 11:00 23.39 ug/m3 0.01 ug/m3 12.59 ug/m3 15.49 ug/m3 0.34 mg/m3 23.22 C 72.03 % N/A 3.14 m/s 65.8 Deg 14.82 ug/m3 1.6 ug/m3
2021-06-13 10:00 25.23 ug/m3 0.05 ug/m3 22.44 ug/m3 20.23 ug/m3 0.42 mg/m3 22.82 C 75.26 % N/A 2.65 m/s 62.97 Deg 14.83 ug/m3 0.58 ug/m3
2021-06-13 09:00 17.44 ug/m3 -0 ug/m3 38.55 ug/m3 34.16 ug/m3 0.31 mg/m3 22.6 C 77.7 % N/A 2.42 m/s 45.63 Deg 10.6 ug/m3 2.1 ug/m3
2021-06-13 08:00 15.23 ug/m3 -0 ug/m3 37.28 ug/m3 33.7 ug/m3 0.3 mg/m3 22.49 C 78.53 % N/A 2 m/s 34.3 Deg 10.67 ug/m3 0.44 ug/m3
2021-06-13 07:00 17.68 ug/m3 -0.1 ug/m3 40.49 ug/m3 20.16 ug/m3 0.25 mg/m3 22.49 C 77.42 % N/A 0.75 m/s 219.65 Deg 3.6 ug/m3 0.87 ug/m3
2021-06-13 06:00 11.31 ug/m3 -0.13 ug/m3 33.84 ug/m3 6.22 ug/m3 0.18 mg/m3 21.19 C 84.34 % N/A 0.84 m/s 219.08 Deg 0.01 ug/m3 0.34 ug/m3
2021-06-13 05:00 9.33 ug/m3 -0.2 ug/m3 32.57 ug/m3 7.05 ug/m3 0.17 mg/m3 21.19 C 84.58 % N/A 1.13 m/s 245.72 Deg -0.33 ug/m3 0.28 ug/m3
2021-06-13 04:00 6.32 ug/m3 -0.13 ug/m3 24.61 ug/m3 12.03 ug/m3 0.15 mg/m3 21.13 C 84.52 % N/A 0.7 m/s 236.35 Deg -0.46 ug/m3 0.31 ug/m3
2021-06-13 03:00 7.53 ug/m3 -0.15 ug/m3 33.09 ug/m3 4.63 ug/m3 0.12 mg/m3 21.42 C 84.31 % N/A 1.11 m/s 254.5 Deg -0.21 ug/m3 0.28 ug/m3
2021-06-13 02:00 12.62 ug/m3 -0.15 ug/m3 35.26 ug/m3 7.17 ug/m3 0.17 mg/m3 22.08 C 77.16 % N/A 1.04 m/s 258.03 Deg 0.08 ug/m3 0.39 ug/m3
2021-06-13 01:00 15.39 ug/m3 -0.13 ug/m3 39.41 ug/m3 10.23 ug/m3 0.21 mg/m3 22.68 C 70.9 % N/A 1.26 m/s 232.87 Deg -0.34 ug/m3 0.65 ug/m3
2021-06-13 00:00 19.32 ug/m3 -0.13 ug/m3 34.39 ug/m3 15.53 ug/m3 0.24 mg/m3 23.11 C 67.87 % N/A 0.69 m/s 206.96 Deg 0.52 ug/m3 0.7 ug/m3
2021-06-12 23:00 23.89 ug/m3 -0.12 ug/m3 31.02 ug/m3 14.48 ug/m3 0.27 mg/m3 23.59 C 59.46 % N/A 0.88 m/s 228.18 Deg 0.05 ug/m3 1.24 ug/m3
2021-06-12 22:00 27.35 ug/m3 -0.06 ug/m3 30.06 ug/m3 18.83 ug/m3 0.31 mg/m3 23.58 C 62.73 % N/A 1.2 m/s 229.35 Deg 0.75 ug/m3 0.97 ug/m3
2021-06-12 21:00 26.26 ug/m3 -0.13 ug/m3 36.61 ug/m3 30.67 ug/m3 0.3 mg/m3 23.32 C 70.63 % N/A 1.48 m/s 244.9 Deg 0.56 ug/m3 0.92 ug/m3
2021-06-12 20:00 31.62 ug/m3 -0.1 ug/m3 42.11 ug/m3 27.96 ug/m3 0.32 mg/m3 23.28 C 74.37 % N/A 1.91 m/s 272.35 Deg 2.02 ug/m3 1.05 ug/m3
2021-06-12 19:00 26.65 ug/m3 -0.07 ug/m3 37.64 ug/m3 10.44 ug/m3 0.32 mg/m3 24.21 C 70.76 % N/A 2.05 m/s 282 Deg 1.36 ug/m3 0.94 ug/m3
2021-06-12 18:00 30.97 ug/m3 0.04 ug/m3 34.46 ug/m3 15.66 ug/m3 0.37 mg/m3 24.77 C 69.38 % N/A 2.01 m/s 117.88 Deg 13.34 ug/m3 0.98 ug/m3
2021-06-12 17:00 25.44 ug/m3 -0.02 ug/m3 32.62 ug/m3 24.59 ug/m3 0.36 mg/m3 24.46 C 73.76 % N/A 2.52 m/s 40.37 Deg 11.3 ug/m3 0.42 ug/m3
2021-06-12 16:00 16.92 ug/m3 0.02 ug/m3 42.55 ug/m3 13.33 ug/m3 0.28 mg/m3 24.32 C 72.7 % N/A 3.23 m/s 45.05 Deg 9.16 ug/m3 0.76 ug/m3
2021-06-12 15:00 19.48 ug/m3 0.02 ug/m3 39.22 ug/m3 24.54 ug/m3 0.31 mg/m3 23.88 C 74.02 % N/A 3.89 m/s 51.77 Deg 10.39 ug/m3 0.49 ug/m3
2021-06-12 14:00 20.16 ug/m3 0.04 ug/m3 31.59 ug/m3 6.41 ug/m3 0.3 mg/m3 23.71 C 76.53 % N/A 4.39 m/s 125.33 Deg 13.53 ug/m3 0.91 ug/m3
2021-06-12 13:00 21.54 ug/m3 -0.01 ug/m3 15.71 ug/m3 6 ug/m3 0.23 mg/m3 27.68 C 46.54 % N/A 2 m/s 274.83 Deg 6.72 ug/m3 0.6 ug/m3
2021-06-12 12:00 24.13 ug/m3 -0.01 ug/m3 16.66 ug/m3 9.23 ug/m3 0.21 mg/m3 27.85 C 38.62 % N/A 2.07 m/s 256.22 Deg 4.06 ug/m3 0.65 ug/m3
2021-06-12 11:00 29.33 ug/m3 -0.01 ug/m3 18.65 ug/m3 8.84 ug/m3 0.27 mg/m3 26.9 C 50.3 % N/A 1.93 m/s 284.3 Deg 7.13 ug/m3 0.92 ug/m3
2021-06-12 10:00 26.28 ug/m3 -0.05 ug/m3 31.52 ug/m3 12.78 ug/m3 0.25 mg/m3 25.81 C 52.15 % N/A 2.23 m/s 267.93 Deg 4.83 ug/m3 0.73 ug/m3
2021-06-12 09:00 26.83 ug/m3 -0.04 ug/m3 39.26 ug/m3 22.08 ug/m3 0.27 mg/m3 24.43 C 62.12 % N/A 2.53 m/s 249.93 Deg 4.57 ug/m3 0.79 ug/m3
2021-06-12 08:00 27.35 ug/m3 -0.06 ug/m3 46.65 ug/m3 28.49 ug/m3 0.26 mg/m3 22.96 C 72.8 % N/A 2.25 m/s 261.7 Deg 4.49 ug/m3 0.52 ug/m3
2021-06-12 07:00 25.28 ug/m3 -0.06 ug/m3 37.35 ug/m3 30.17 ug/m3 0.23 mg/m3 21.77 C 79.14 % N/A 2.49 m/s 245.38 Deg 3.17 ug/m3 0.73 ug/m3
2021-06-12 06:00 20.51 ug/m3 -0.09 ug/m3 33.71 ug/m3 26.9 ug/m3 0.21 mg/m3 20.87 C 83.7 % N/A 1.92 m/s 230.68 Deg 1.46 ug/m3 0.5 ug/m3
2021-06-12 05:00 17.13 ug/m3 -0.09 ug/m3 38.22 ug/m3 20.44 ug/m3 0.18 mg/m3 20.69 C 83.42 % N/A 1.14 m/s 253.38 Deg 0.49 ug/m3 0.39 ug/m3
2021-06-12 04:00 9.37 ug/m3 -0.12 ug/m3 30.96 ug/m3 24.61 ug/m3 0.16 mg/m3 20.68 C 82.34 % N/A 1.11 m/s 244.47 Deg -0.24 ug/m3 0.52 ug/m3
2021-06-12 03:00 12.08 ug/m3 -0.08 ug/m3 27.47 ug/m3 15.51 ug/m3 0.12 mg/m3 21.3 C 74.62 % N/A 1.05 m/s 228.37 Deg -0.24 ug/m3 0.58 ug/m3
2021-06-12 02:00 11.68 ug/m3 -0.13 ug/m3 31.6 ug/m3 27.81 ug/m3 0.17 mg/m3 21.42 C 75.45 % N/A 0.99 m/s 237.53 Deg -0.38 ug/m3 0.47 ug/m3
2021-06-12 01:00 18.06 ug/m3 -0.13 ug/m3 49.17 ug/m3 26.67 ug/m3 0.21 mg/m3 21.79 C 75.19 % N/A 1.2 m/s 230.12 Deg -0.18 ug/m3 1.03 ug/m3
2021-06-12 00:00 26.55 ug/m3 -0.11 ug/m3 49.54 ug/m3 12.04 ug/m3 0.27 mg/m3 22.27 C 75.86 % N/A 0.68 m/s 229.8 Deg 0.21 ug/m3 0.66 ug/m3
2021-06-11 23:00 24.5 ug/m3 -0.07 ug/m3 42.82 ug/m3 22.54 ug/m3 0.25 mg/m3 22.36 C 75.67 % N/A 1.06 m/s 264.15 Deg 0.36 ug/m3 0.7 ug/m3
2021-06-11 22:00 24.93 ug/m3 -0.07 ug/m3 41.48 ug/m3 25.64 ug/m3 0.31 mg/m3 22.81 C 70.11 % N/A 0.96 m/s 278.43 Deg 2.53 ug/m3 1.49 ug/m3
2021-06-11 21:00 27.69 ug/m3 -0.08 ug/m3 33.54 ug/m3 19.54 ug/m3 0.27 mg/m3 22.64 C 70.83 % N/A 1.06 m/s 266.25 Deg 1.3 ug/m3 0.91 ug/m3
2021-06-11 20:00 32.03 ug/m3 -0.01 ug/m3 43.16 ug/m3 14.6 ug/m3 0.33 mg/m3 22.84 C 74.13 % N/A 1.45 m/s 302.75 Deg 5.94 ug/m3 1.21 ug/m3
2021-06-11 19:00 28.45 ug/m3 -0.07 ug/m3 39.84 ug/m3 20.02 ug/m3 0.29 mg/m3 23.74 C 69.72 % N/A 1.7 m/s 314.27 Deg 3.8 ug/m3 0.81 ug/m3
2021-06-11 18:00 39.09 ug/m3 0.13 ug/m3 29.53 ug/m3 20.24 ug/m3 0.41 mg/m3 24.56 C 65.4 % N/A 2.1 m/s 31.83 Deg 15.64 ug/m3 1.1 ug/m3
2021-06-11 17:00 38.01 ug/m3 0.17 ug/m3 29.36 ug/m3 23.36 ug/m3 0.4 mg/m3 24.2 C 64.82 % N/A 2.95 m/s 46.77 Deg 16.21 ug/m3 0.65 ug/m3
2021-06-11 16:00 39.08 ug/m3 0.22 ug/m3 35.29 ug/m3 26.17 ug/m3 0.41 mg/m3 24.16 C 63.74 % N/A 3.24 m/s 53.18 Deg 21.49 ug/m3 1.42 ug/m3
2021-06-11 15:00 29.15 ug/m3 0.13 ug/m3 25.94 ug/m3 8.75 ug/m3 0.34 mg/m3 23.89 C 61.48 % N/A 3.63 m/s 60.68 Deg 20.23 ug/m3 1.21 ug/m3

It is to be noted that the data is provisional and subject to quality assurance procedures. For validated data kindly refer your request to contact.air@era.org.mt